RYR3KA LZIB-EPWA
Flight info
| Callsign | RYR3KA |
|---|---|
| Flight time | 0h 49m |
| Altitude | 23000 |
| Route | NIT M985 NIDOK/N0451F350 DCT MEBAN DCT ORTEB/N0450F360 DCT KONZI DCT LOGDA |
| Aircraft | B738/M-SDE2E3FGHIRWXY/LB1 |
Departure
| Time | 2026-05-04 19:52 |
|---|---|
| Airport | M. R. Štefánik Airport (LZIB) |
Arrival
| Time | 2026-05-04 20:41 |
|---|---|
| Airport | Warsaw Chopin Airport (EPWA) |
| Time | Latitude | Longitude | Altitude | Speed | Heading |
|---|---|---|---|---|---|
| 2026-05-04 19:21 | 48.16857 | 17.20025 | 442 ft | 0 kts | 304° |
| 2026-05-04 19:42 | 48.16851 | 17.20039 | 426 ft | 2 kts | 303° |
| 2026-05-04 19:42 | 48.16843 | 17.20059 | 438 ft | 2 kts | 309° |
| 2026-05-04 19:43 | 48.16829 | 17.20072 | 426 ft | 2 kts | 12° |
| 2026-05-04 19:43 | 48.16818 | 17.20065 | 428 ft | 0 kts | 41° |
| 2026-05-04 19:47 | 48.16827 | 17.20083 | 429 ft | 1 kts | 51° |
| 2026-05-04 19:47 | 48.16829 | 17.20088 | 426 ft | 0 kts | 49° |
| 2026-05-04 19:48 | 48.16872 | 17.20146 | 431 ft | 16 kts | 41° |
| 2026-05-04 19:48 | 48.16969 | 17.20280 | 436 ft | 21 kts | 43° |
| 2026-05-04 19:48 | 48.17076 | 17.20434 | 441 ft | 21 kts | 44° |
| 2026-05-04 19:48 | 48.17161 | 17.20561 | 435 ft | 11 kts | 54° |
| 2026-05-04 19:49 | 48.17170 | 17.20589 | 438 ft | 4 kts | 53° |
| 2026-05-04 19:49 | 48.17248 | 17.20535 | 433 ft | 25 kts | 314° |
| 2026-05-04 19:49 | 48.17394 | 17.20323 | 441 ft | 25 kts | 331° |
| 2026-05-04 19:49 | 48.17458 | 17.20304 | 441 ft | 0 kts | 7° |
| 2026-05-04 19:50 | 48.17470 | 17.20308 | 441 ft | 11 kts | 12° |
| 2026-05-04 19:50 | 48.17542 | 17.20385 | 437 ft | 4 kts | 45° |
| 2026-05-04 19:50 | 48.17551 | 17.20422 | 441 ft | 4 kts | 104° |
| 2026-05-04 19:51 | 48.17546 | 17.20434 | 434 ft | 0 kts | 123° |
| 2026-05-04 19:51 | 48.17532 | 17.20466 | 436 ft | 29 kts | 127° |
| 2026-05-04 19:52 | 48.17100 | 17.21131 | 457 ft | 142 kts | 135° |
| 2026-05-04 19:52 | 48.16343 | 17.22251 | 956 ft | 167 kts | 134° |
| 2026-05-04 19:52 | 48.15445 | 17.23651 | 2080 ft | 183 kts | 138° |
| 2026-05-04 19:52 | 48.14495 | 17.25119 | 3036 ft | 212 kts | 140° |
| 2026-05-04 19:53 | 48.13553 | 17.26952 | 3764 ft | 232 kts | 125° |
| 2026-05-04 19:53 | 48.12762 | 17.29130 | 4535 ft | 239 kts | 121° |
| 2026-05-04 19:53 | 48.12107 | 17.31316 | 5843 ft | 219 kts | 117° |
| 2026-05-04 19:53 | 48.11500 | 17.33462 | 6647 ft | 230 kts | 116° |
| 2026-05-04 19:54 | 48.11059 | 17.35896 | 7044 ft | 257 kts | 94° |
| 2026-05-04 19:54 | 48.11428 | 17.38561 | 7733 ft | 270 kts | 66° |
| 2026-05-04 19:54 | 48.12524 | 17.40891 | 8398 ft | 284 kts | 49° |
| 2026-05-04 19:54 | 48.13937 | 17.43089 | 9067 ft | 300 kts | 46° |
| 2026-05-04 19:55 | 48.15437 | 17.45309 | 10122 ft | 305 kts | 46° |
| 2026-05-04 19:55 | 48.16967 | 17.47626 | 10853 ft | 325 kts | 47° |
| 2026-05-04 19:55 | 48.18583 | 17.50203 | 11254 ft | 351 kts | 48° |
| 2026-05-04 19:55 | 48.20248 | 17.52941 | 12109 ft | 360 kts | 49° |
| 2026-05-04 19:56 | 48.21939 | 17.55746 | 13150 ft | 364 kts | 49° |
| 2026-05-04 19:56 | 48.23647 | 17.58578 | 14130 ft | 369 kts | 49° |
| 2026-05-04 19:56 | 48.25384 | 17.61449 | 15056 ft | 373 kts | 48° |
| 2026-05-04 19:56 | 48.27115 | 17.64297 | 16013 ft | 376 kts | 48° |
| 2026-05-04 19:57 | 48.28893 | 17.67213 | 16962 ft | 380 kts | 48° |
| 2026-05-04 19:57 | 48.30686 | 17.70150 | 17888 ft | 384 kts | 47° |
| 2026-05-04 19:57 | 48.32506 | 17.73128 | 18728 ft | 389 kts | 47° |
| 2026-05-04 19:57 | 48.34342 | 17.76132 | 19531 ft | 392 kts | 47° |
| 2026-05-04 19:58 | 48.36189 | 17.79157 | 20350 ft | 395 kts | 47° |
| 2026-05-04 19:58 | 48.38054 | 17.82214 | 21153 ft | 398 kts | 47° |
| 2026-05-04 19:58 | 48.39938 | 17.85306 | 21916 ft | 402 kts | 47° |
| 2026-05-04 19:58 | 48.41833 | 17.88419 | 22650 ft | 406 kts | 47° |
| 2026-05-04 19:59 | 48.43752 | 17.91576 | 23027 ft | 410 kts | 46° |
| 2026-05-04 19:59 | 48.45673 | 17.94740 | 23014 ft | 409 kts | 46° |
| 2026-05-04 19:59 | 48.47593 | 17.97904 | 23027 ft | 408 kts | 46° |
| 2026-05-04 19:59 | 48.49507 | 18.01064 | 23029 ft | 408 kts | 47° |
| 2026-05-04 20:00 | 48.51421 | 18.04228 | 23154 ft | 406 kts | 47° |
| 2026-05-04 20:00 | 48.53307 | 18.07351 | 23755 ft | 403 kts | 46° |
| 2026-05-04 20:00 | 48.55209 | 18.10503 | 24136 ft | 406 kts | 46° |
| 2026-05-04 20:00 | 48.57106 | 18.13652 | 24603 ft | 404 kts | 46° |
| 2026-05-04 20:01 | 48.58994 | 18.16789 | 25081 ft | 402 kts | 46° |
| 2026-05-04 20:01 | 48.60873 | 18.19914 | 25570 ft | 401 kts | 46° |
| 2026-05-04 20:01 | 48.62740 | 18.23023 | 26060 ft | 399 kts | 46° |
| 2026-05-04 20:01 | 48.64600 | 18.26125 | 26564 ft | 397 kts | 46° |
| 2026-05-04 20:02 | 48.66451 | 18.29213 | 27076 ft | 395 kts | 46° |
| 2026-05-04 20:02 | 48.68294 | 18.32294 | 27591 ft | 394 kts | 46° |
| 2026-05-04 20:02 | 48.70130 | 18.35364 | 28122 ft | 392 kts | 46° |
| 2026-05-04 20:02 | 48.71863 | 18.38267 | 28629 ft | 391 kts | 46° |
| 2026-05-04 20:03 | 48.73685 | 18.41320 | 29178 ft | 390 kts | 46° |
| 2026-05-04 20:03 | 48.75500 | 18.44366 | 29730 ft | 389 kts | 46° |
| 2026-05-04 20:03 | 48.77309 | 18.47403 | 30273 ft | 387 kts | 46° |
| 2026-05-04 20:03 | 48.79113 | 18.50432 | 30756 ft | 386 kts | 46° |
| 2026-05-04 20:04 | 48.80910 | 18.53452 | 31252 ft | 385 kts | 46° |
| 2026-05-04 20:04 | 48.82719 | 18.56497 | 31401 ft | 394 kts | 46° |
| 2026-05-04 20:04 | 48.84582 | 18.59634 | 31507 ft | 407 kts | 46° |
| 2026-05-04 20:04 | 48.86509 | 18.62884 | 31623 ft | 419 kts | 46° |
| 2026-05-04 20:05 | 48.88482 | 18.66219 | 31727 ft | 430 kts | 46° |
| 2026-05-04 20:05 | 48.90499 | 18.69634 | 31837 ft | 441 kts | 46° |
| 2026-05-04 20:05 | 48.92541 | 18.73101 | 32018 ft | 448 kts | 46° |
| 2026-05-04 20:05 | 48.94639 | 18.76644 | 32316 ft | 452 kts | 45° |
| 2026-05-04 20:06 | 48.96860 | 18.80020 | 32763 ft | 450 kts | 40° |
| 2026-05-04 20:06 | 48.99258 | 18.83031 | 33333 ft | 445 kts | 33° |
| 2026-05-04 20:06 | 49.01979 | 18.85188 | 33887 ft | 439 kts | 19° |
| 2026-05-04 20:06 | 49.04900 | 18.86690 | 34358 ft | 436 kts | 15° |
| 2026-05-04 20:07 | 49.07758 | 18.88063 | 34714 ft | 438 kts | 17° |
| 2026-05-04 20:07 | 49.10607 | 18.89750 | 35010 ft | 441 kts | 22° |
| 2026-05-04 20:07 | 49.13379 | 18.91833 | 35024 ft | 447 kts | 26° |
| 2026-05-04 20:08 | 49.18814 | 18.96436 | 35037 ft | 444 kts | 27° |
| 2026-05-04 20:08 | 49.24187 | 19.00936 | 35036 ft | 440 kts | 26° |
| 2026-05-04 20:09 | 49.29608 | 19.05287 | 35036 ft | 440 kts | 25° |
| 2026-05-04 20:09 | 49.35061 | 19.09585 | 35043 ft | 441 kts | 25° |
| 2026-05-04 20:10 | 49.40518 | 19.13883 | 35042 ft | 441 kts | 25° |
| 2026-05-04 20:10 | 49.45979 | 19.18203 | 35038 ft | 442 kts | 25° |
| 2026-05-04 20:11 | 49.51444 | 19.22542 | 35032 ft | 442 kts | 25° |
| 2026-05-04 20:11 | 49.56912 | 19.26896 | 35026 ft | 442 kts | 25° |
| 2026-05-04 20:12 | 49.62375 | 19.31257 | 35025 ft | 442 kts | 25° |
| 2026-05-04 20:12 | 49.67806 | 19.35603 | 35019 ft | 442 kts | 25° |
| 2026-05-04 20:13 | 49.73300 | 19.40017 | 35016 ft | 442 kts | 26° |
| 2026-05-04 20:13 | 49.78721 | 19.44389 | 35014 ft | 442 kts | 26° |
| 2026-05-04 20:14 | 49.84175 | 19.48788 | 35008 ft | 442 kts | 25° |
| 2026-05-04 20:14 | 49.89631 | 19.53194 | 35000 ft | 442 kts | 26° |
| 2026-05-04 20:15 | 49.95081 | 19.57608 | 34995 ft | 442 kts | 26° |
| 2026-05-04 20:15 | 50.00547 | 19.62047 | 34641 ft | 445 kts | 26° |
| 2026-05-04 20:15 | 50.03280 | 19.64272 | 34306 ft | 442 kts | 26° |
| 2026-05-04 20:16 | 50.05995 | 19.66484 | 33967 ft | 441 kts | 26° |
| 2026-05-04 20:16 | 50.08716 | 19.68706 | 33588 ft | 442 kts | 26° |
| 2026-05-04 20:16 | 50.11446 | 19.70935 | 33208 ft | 443 kts | 26° |
| 2026-05-04 20:16 | 50.13821 | 19.72878 | 32877 ft | 444 kts | 26° |
| 2026-05-04 20:17 | 50.14729 | 19.73622 | 32761 ft | 444 kts | 26° |
| 2026-05-04 20:17 | 50.17467 | 19.75865 | 32392 ft | 444 kts | 26° |
| 2026-05-04 20:17 | 50.20202 | 19.78109 | 32029 ft | 445 kts | 26° |
| 2026-05-04 20:17 | 50.22939 | 19.80358 | 31668 ft | 445 kts | 26° |
| 2026-05-04 20:18 | 50.25682 | 19.82615 | 31315 ft | 446 kts | 26° |
| 2026-05-04 20:18 | 50.28428 | 19.84877 | 30967 ft | 446 kts | 26° |
| 2026-05-04 20:18 | 50.31175 | 19.87144 | 30648 ft | 447 kts | 26° |
| 2026-05-04 20:18 | 50.33927 | 19.89417 | 30331 ft | 448 kts | 26° |
| 2026-05-04 20:19 | 50.36688 | 19.91701 | 30007 ft | 449 kts | 26° |
| 2026-05-04 20:19 | 50.39455 | 19.93993 | 29649 ft | 451 kts | 26° |
| 2026-05-04 20:19 | 50.42229 | 19.96294 | 29277 ft | 452 kts | 26° |
| 2026-05-04 20:19 | 50.45019 | 19.98611 | 28912 ft | 454 kts | 26° |
| 2026-05-04 20:20 | 50.47816 | 20.00937 | 28563 ft | 455 kts | 26° |
| 2026-05-04 20:20 | 50.50580 | 20.03239 | 28219 ft | 457 kts | 26° |
| 2026-05-04 20:20 | 50.53392 | 20.05584 | 27880 ft | 458 kts | 26° |
| 2026-05-04 20:20 | 50.56204 | 20.07932 | 27533 ft | 459 kts | 26° |
| 2026-05-04 20:21 | 50.59027 | 20.10293 | 27197 ft | 460 kts | 26° |
| 2026-05-04 20:21 | 50.61860 | 20.12665 | 26867 ft | 461 kts | 26° |
| 2026-05-04 20:21 | 50.67535 | 20.17427 | 26208 ft | 463 kts | 26° |
| 2026-05-04 20:22 | 50.70374 | 20.19814 | 25887 ft | 464 kts | 26° |
| 2026-05-04 20:22 | 50.73228 | 20.22218 | 25565 ft | 465 kts | 26° |
| 2026-05-04 20:22 | 50.76083 | 20.24625 | 25252 ft | 465 kts | 26° |
| 2026-05-04 20:22 | 50.78930 | 20.27029 | 24941 ft | 465 kts | 26° |
| 2026-05-04 20:23 | 50.81782 | 20.29441 | 24629 ft | 463 kts | 26° |
| 2026-05-04 20:23 | 50.84618 | 20.31843 | 24320 ft | 461 kts | 26° |
| 2026-05-04 20:23 | 50.86526 | 20.33461 | 24122 ft | 460 kts | 26° |
| 2026-05-04 20:23 | 50.89299 | 20.35816 | 23819 ft | 458 kts | 26° |
| 2026-05-04 20:24 | 50.92102 | 20.38199 | 23521 ft | 456 kts | 26° |
| 2026-05-04 20:24 | 50.94893 | 20.40574 | 23162 ft | 454 kts | 26° |
| 2026-05-04 20:24 | 50.97667 | 20.42938 | 22805 ft | 452 kts | 26° |
| 2026-05-04 20:24 | 51.00436 | 20.45301 | 22451 ft | 451 kts | 26° |
| 2026-05-04 20:25 | 51.03199 | 20.47662 | 22110 ft | 450 kts | 26° |
| 2026-05-04 20:25 | 51.05951 | 20.50018 | 21768 ft | 449 kts | 26° |
| 2026-05-04 20:25 | 51.08692 | 20.52366 | 21430 ft | 447 kts | 26° |
| 2026-05-04 20:25 | 51.11430 | 20.54715 | 21099 ft | 446 kts | 26° |
| 2026-05-04 20:26 | 51.14160 | 20.57061 | 20767 ft | 445 kts | 26° |
| 2026-05-04 20:26 | 51.16887 | 20.59407 | 20440 ft | 444 kts | 26° |
| 2026-05-04 20:26 | 51.19598 | 20.61743 | 20118 ft | 443 kts | 26° |
| 2026-05-04 20:26 | 51.22308 | 20.64081 | 19803 ft | 442 kts | 26° |
| 2026-05-04 20:27 | 51.25001 | 20.66407 | 19491 ft | 440 kts | 26° |
| 2026-05-04 20:27 | 51.27692 | 20.68733 | 19175 ft | 439 kts | 26° |
| 2026-05-04 20:27 | 51.30408 | 20.70941 | 18864 ft | 437 kts | 23° |
| 2026-05-04 20:27 | 51.33185 | 20.72885 | 18558 ft | 435 kts | 20° |
| 2026-05-04 20:28 | 51.35986 | 20.74703 | 18143 ft | 435 kts | 19° |
| 2026-05-04 20:28 | 51.38797 | 20.76447 | 17612 ft | 429 kts | 18° |
| 2026-05-04 20:28 | 51.41557 | 20.78128 | 17121 ft | 417 kts | 18° |
| 2026-05-04 20:28 | 51.44206 | 20.79747 | 16625 ft | 398 kts | 18° |
| 2026-05-04 20:29 | 51.46739 | 20.81311 | 16170 ft | 381 kts | 18° |
| 2026-05-04 20:29 | 51.49150 | 20.82814 | 15787 ft | 364 kts | 18° |
| 2026-05-04 20:29 | 51.51467 | 20.84268 | 15410 ft | 351 kts | 18° |
| 2026-05-04 20:29 | 51.53702 | 20.85675 | 15033 ft | 339 kts | 18° |
| 2026-05-04 20:30 | 51.55844 | 20.87027 | 14677 ft | 332 kts | 18° |
| 2026-05-04 20:30 | 51.57952 | 20.88359 | 14324 ft | 318 kts | 18° |
| 2026-05-04 20:30 | 51.59994 | 20.89651 | 13988 ft | 314 kts | 18° |
| 2026-05-04 20:30 | 51.62019 | 20.90931 | 13657 ft | 312 kts | 18° |
| 2026-05-04 20:31 | 51.64033 | 20.92203 | 13355 ft | 310 kts | 18° |
| 2026-05-04 20:31 | 51.66029 | 20.93464 | 13119 ft | 306 kts | 18° |
| 2026-05-04 20:31 | 51.68000 | 20.94710 | 12935 ft | 304 kts | 18° |
| 2026-05-04 20:31 | 51.69938 | 20.95936 | 12799 ft | 293 kts | 18° |
| 2026-05-04 20:32 | 51.71801 | 20.97113 | 12667 ft | 284 kts | 18° |
| 2026-05-04 20:32 | 51.73623 | 20.98264 | 12539 ft | 282 kts | 18° |
| 2026-05-04 20:32 | 51.75457 | 20.99423 | 12453 ft | 282 kts | 18° |
| 2026-05-04 20:32 | 51.77263 | 21.00563 | 12427 ft | 278 kts | 17° |
| 2026-05-04 20:33 | 51.79077 | 21.01709 | 12464 ft | 280 kts | 17° |
| 2026-05-04 20:33 | 51.80856 | 21.02837 | 12529 ft | 270 kts | 17° |
| 2026-05-04 20:33 | 51.82571 | 21.03939 | 12318 ft | 266 kts | 18° |
| 2026-05-04 20:33 | 51.84298 | 21.05069 | 11682 ft | 267 kts | 18° |
| 2026-05-04 20:34 | 51.86015 | 21.06195 | 11002 ft | 265 kts | 19° |
| 2026-05-04 20:34 | 51.87581 | 21.07733 | 10315 ft | 266 kts | 43° |
| 2026-05-04 20:34 | 51.88529 | 21.10279 | 9653 ft | 263 kts | 66° |
| 2026-05-04 20:34 | 51.89225 | 21.12995 | 8934 ft | 260 kts | 67° |
| 2026-05-04 20:35 | 51.90143 | 21.15472 | 8182 ft | 257 kts | 41° |
| 2026-05-04 20:35 | 51.91690 | 21.16714 | 7500 ft | 246 kts | 7° |
| 2026-05-04 20:35 | 51.93354 | 21.16654 | 6832 ft | 236 kts | 343° |
| 2026-05-04 20:35 | 51.94860 | 21.15696 | 6160 ft | 230 kts | 328° |
| 2026-05-04 20:36 | 51.96254 | 21.14462 | 5462 ft | 228 kts | 326° |
| 2026-05-04 20:36 | 51.97638 | 21.13233 | 4781 ft | 227 kts | 327° |
| 2026-05-04 20:36 | 51.99037 | 21.12052 | 4071 ft | 225 kts | 328° |
| 2026-05-04 20:36 | 52.00384 | 21.10910 | 3676 ft | 211 kts | 328° |
| 2026-05-04 20:37 | 52.01596 | 21.09857 | 3408 ft | 200 kts | 327° |
| 2026-05-04 20:37 | 52.02795 | 21.08804 | 3145 ft | 191 kts | 327° |
| 2026-05-04 20:37 | 52.03925 | 21.07813 | 2895 ft | 180 kts | 327° |
| 2026-05-04 20:37 | 52.04988 | 21.06880 | 2667 ft | 166 kts | 327° |
| 2026-05-04 20:38 | 52.05917 | 21.06065 | 2463 ft | 152 kts | 327° |
| 2026-05-04 20:38 | 52.06773 | 21.05313 | 2290 ft | 142 kts | 327° |
| 2026-05-04 20:38 | 52.07623 | 21.04565 | 2136 ft | 137 kts | 327° |
| 2026-05-04 20:38 | 52.08469 | 21.03820 | 1941 ft | 139 kts | 327° |
| 2026-05-04 20:39 | 52.09323 | 21.03070 | 1752 ft | 139 kts | 327° |
| 2026-05-04 20:39 | 52.10098 | 21.02390 | 1582 ft | 138 kts | 328° |
| 2026-05-04 20:39 | 52.10931 | 21.01658 | 1401 ft | 138 kts | 328° |
| 2026-05-04 20:39 | 52.11774 | 21.00919 | 1216 ft | 137 kts | 329° |
| 2026-05-04 20:40 | 52.12634 | 21.00169 | 1035 ft | 140 kts | 331° |
| 2026-05-04 20:40 | 52.13478 | 20.99423 | 861 ft | 138 kts | 330° |
| 2026-05-04 20:40 | 52.14279 | 20.98706 | 659 ft | 128 kts | 331° |
| 2026-05-04 20:40 | 52.15052 | 20.98037 | 513 ft | 123 kts | 332° |
| 2026-05-04 20:41 | 52.15777 | 20.97405 | 368 ft | 113 kts | 332° |
| 2026-05-04 20:41 | 52.16373 | 20.96882 | 361 ft | 77 kts | 331° |
| 2026-05-04 20:41 | 52.16718 | 20.96588 | 362 ft | 42 kts | 334° |
| 2026-05-04 20:41 | 52.16970 | 20.96507 | 362 ft | 26 kts | 3° |
| 2026-05-04 20:42 | 52.17030 | 20.96515 | 360 ft | 0 kts | 7° |
| 2026-05-04 20:43 | 52.17056 | 20.96525 | 360 ft | 15 kts | 20° |
| 2026-05-04 20:43 | 52.17116 | 20.96647 | 363 ft | 15 kts | 62° |
| 2026-05-04 20:43 | 52.17165 | 20.96784 | 362 ft | 12 kts | 41° |
| 2026-05-04 20:43 | 52.17228 | 20.96781 | 363 ft | 5 kts | 334° |
| 2026-05-04 20:44 | 52.17242 | 20.96733 | 361 ft | 5 kts | 259° |
| 2026-05-04 20:44 | 52.17224 | 20.96667 | 361 ft | 3 kts | 243° |
| 2026-05-04 20:44 | 52.17219 | 20.96659 | 361 ft | 1 kts | 227° |
| 2026-05-04 20:44 | 52.17218 | 20.96651 | 361 ft | 0 kts | 245° |